Terminal Aerodrome Forecast
Issued by NWS

Home | Current Version | Previous Version | Text Only | Print | Product List | Glossary On
Versions: 1 2 3 4 5 6 7 8 9 10 11 12 13
000
FTUS43 KEAX 272300
TAFSTJ
TAF
KSTJ 272322Z 2800/2824 01010KT P6SM SCT030
     FM280100 19005KT P6SM SKC
     FM281800 30010G22KT P6SM SCT050=

USA.gov is the U.S. government's official web portal to all federal, state and local government web resources and services.